METAR Data
IDs: Format: Raw Decoded Include TAF

Data at: 0018 UTC 26 Oct 2021

PAOU 252356Z AUTO 34024G30KT 10SM OVC036 02/M03 A2933 RMK AO2 PK WND 35031/2345 SLP932 60000 T00221033 10039 20017 51012 FZRANO
PAOU 252256Z AUTO 34019G27KT 10SM BKN036 02/M04 A2932 RMK AO2 PK WND 35029/2226 SLP928 T00221039 FZRANO
PAOU 252156Z AUTO 34020KT 10SM OVC036 02/M04 A2931 RMK AO2 PK WND 34028/2134 SLP925 T00221039 FZRANO
PAOU 252056Z AUTO 34021G27KT 10SM SCT029 OVC035 02/M03 A2930 RMK AO2 PK WND 34027/2054 SLP920 60000 T00221028 51025 FZRANO
PAOU 252047Z AUTO 34022G27KT 10SM FEW026 OVC033 02/M02 A2929 RMK AO2 PK WND 33027/2042 FZRANO
PAOU 251956Z AUTO 34021KT 10SM SCT024 BKN029 OVC050 03/M01 A2927 RMK AO2 PK WND 02027/1908 RAE1858UPB1858E12 SLP911 P0000 T00331011
PAOU 251856Z AUTO 03020G28KT 10SM -RA FEW031 OVC048 03/M01 A2925 RMK AO2 PK WND 36030/1840 RAB47 SLP904 P0000 T00331011
PAOU 251756Z AUTO 02022G27KT 10SM FEW027 BKN048 OVC060 03/M01 A2922 RMK AO2 PK WND 02032/1729 SLP895 60001 T00331011 10033 20022 53014
PAOU 251656Z AUTO 04022G25KT 10SM FEW011 BKN035 OVC048 03/M01 A2920 RMK AO2 PK WND 05026/1559 UPE11B27E41 SLP887 P0000 T00281006
PAOU 251613Z AUTO 05019G22KT 10SM FEW013 BKN031 OVC050 02/01 A2919 RMK AO2 PK WND 05026/1559 UPE11 P0000 FZRANO
PAOU 251556Z AUTO 05020KT 9SM UP SCT014 BKN029 OVC050 03/01 A2918 RMK AO2 PK WND 05027/1549 UPB54 SLP881 P0001 T00280006
PAOU 251536Z AUTO 05018KT 10SM BKN014 BKN029 OVC050 03/01 A2917 RMK AO2
PAOU 251456Z AUTO 05018KT 10SM CLR 02/00 A2916 RMK AO2 SLP875 T00220000 53000 FZRANO
PAOU 251356Z AUTO 05015KT 10SM FEW110 02/M02 A2916 RMK AO2 SLP873 T00221017 FZRANO
PAOU 251256Z AUTO 05013KT 10SM CLR 02/M02 A2916 RMK AO2 SLP872 T00221017 FZRANO
PAOU 251156Z AUTO 05013KT 10SM CLR 03/M02 A2916 RMK AO2 SLP875 T00281017 10028 20022 55006
PAOU 251056Z AUTO 05015KT 10SM CLR 02/M02 A2916 RMK AO2 SLP874 T00221017 FZRANO
PAOU 250956Z AUTO 04014KT 10SM FEW055 03/M02 A2917 RMK AO2 SLP876 T00281017
PAOU 250856Z AUTO 05015KT 10SM OVC050 03/M02 A2918 RMK AO2 SLP881 T00281022 400440022 56017
PAOU 250756Z AUTO 04014KT 10SM OVC050 03/M02 A2919 RMK AO2 SLP883 T00281022
PAOU 250656Z AUTO 05016KT 10SM OVC050 03/M03 A2920 RMK AO2 SLP888 T00281028
PAOU 250556Z AUTO 06015KT 10SM OVC044 03/M02 A2923 RMK AO2 SLP898 T00281022 10039 20028 58031
PAOU 250456Z AUTO 05016KT 10SM OVC048 03/M03 A2926 RMK AO2 SLP909 T00281028
PAOU 250356Z AUTO 06015KT 10SM BKN050 03/M04 A2930 RMK AO2 SLP920 T00281039
PAOU 250256Z AUTO 05014KT 10SM BKN046 OVC120 03/M03 A2932 RMK AO2 SLP929 T00281028 56042
PAOU 250156Z AUTO 06016KT 10SM FEW036 OVC045 03/M03 A2935 RMK AO2 SLP938 T00331028
PAOU 250056Z AUTO 06014G18KT 10SM FEW027 SCT036 OVC046 03/M02 A2939 RMK AO2 PRESFR SLP951 T00331017
PAOU 242356Z AUTO 10009KT 10SM OVC042 03/M01 A2945 RMK AO2 SLP971 60000 T00331006 10039 20022 57039
PAOU 242256Z AUTO 04009KT 9SM OVC045 04/M02 A2949 RMK AO2 SLP985 T00391022
PAOU 242156Z AUTO 03006KT 8SM BKN050 04/M01 A2952 RMK AO2 SLP996 T00391006
PAOU 242056Z AUTO 36010KT 9SM SCT027 SCT036 OVC055 04/M01 A2956 RMK AO2 SLP010 60000 T00391011 56019
PAOU 241956Z AUTO 01011KT 8SM FEW029 OVC046 03/M01 A2957 RMK AO2 UPB35E48 SLP013 P0000 T00331006
PAOU 241856Z AUTO 36012KT 9SM FEW047 OVC060 03/M01 A2959 RMK AO2 SLP021 T00331006
PAOU 241756Z AUTO 01017KT 7SM FEW023 BKN050 03/01 A2962 RMK AO2 UPE1657RAB1657E11 SLP029 P0000 60000 T00330006 10039 20022 58021
PAOU 241743Z AUTO 35015KT 9SM FEW020 BKN050 03/M01 A2962 RMK AO2 UPE1657RAB1657E11 P0000
PAOU 241703Z AUTO 03009KT 5SM -RA BR FEW012 BKN027 BKN032 02/00 A2964 RMK AO2 UPE1657RAB1657 P0000 FZRANO
PAOU 241656Z AUTO 01009KT 5SM UP FEW017 SCT025 BKN050 03/00 A2965 RMK AO2 UPB21E32B53 SLP039 P0000 T00280000
PAOU 241556Z AUTO 34015KT 10SM FEW018 SCT045 BKN070 03/00 A2967 RMK AO2 SLP045 T00330000
PAOU 241530Z AUTO 35019KT 9SM FEW018 SCT046 BKN070 03/01 A2967 RMK AO2
PAOU 241521Z AUTO 35017KT 9SM FEW018 BKN025 BKN032 03/01 A2968 RMK AO2
PAOU 241456Z AUTO 35018G21KT 10SM FEW020 SCT029 BKN046 04/00 A2968 RMK AO2 RAB07E19 SLP050 P0000 60000 T00390000 52002
PAOU 241442Z AUTO 33018G22KT 10SM SCT028 BKN046 04/M01 A2968 RMK AO2 RAB07E19 P0000
PAOU 241432Z AUTO 33019G23KT 10SM FEW021 BKN028 OVC055 03/M01 A2968 RMK AO2 RAB07E19 P0000
PAOU 241356Z AUTO 35013KT 9SM FEW011 BKN033 BKN041 03/01 A2967 RMK AO2 PK WND 33030/1312 RAB34E44 SLP048 P0000 T00280006
PAOU 241256Z AUTO 31023KT 10SM FEW023 SCT036 SCT045 04/M01 A2968 RMK AO2 PK WND 31037/1215 SLP051 T00391006